Data for 04/27/2016

Time Sea-Level Adjusted Pressure Absolute Pressure Temperature Relative Humidity Dew Point   
(mb) (inHg) (mb) (inHg) (C) (F) (%) (C) (F)
00:05 1016 30 845 24.95 2.4 36.3 81 -0.6 30.9
00:10 1016 30 845 24.95 2.5 36.4 81 -0.5 31.1
00:15 1016 30 845 24.95 2.4 36.4 81 -0.5 31.1
00:20 1016 30 845 24.95 2.3 36.2 82 -0.4 31.2
00:25 1016 30 845 24.95 2.2 36 83 -0.4 31.4
00:30 1016 30 845 24.95 2.2 36 83 -0.3 31.4
00:35 1016 30 845 24.95 2.2 36 84 -0.2 31.6
00:40 1016 30 845 24.95 2.2 36 83 -0.3 31.4
00:45 1016 30 845 24.95 2.2 35.9 83 -0.3 31.4
00:50 1016 30 845 24.95 2.1 35.8 83 -0.4 31.2
00:55 1016 30 845 24.95 2.1 35.8 84 -0.3 31.5
01:00 1016 30 845 24.95 2.1 35.7 84 -0.3 31.5
01:05 1016 30 845 24.95 2 35.6 85 -0.3 31.5
01:10 1016 30 845 24.95 2 35.5 85 -0.2 31.6
01:15 1016 30 845 24.95 1.9 35.5 86 -0.2 31.7
01:20 1016 30 845 24.95 1.8 35.2 87 -0.2 31.6
01:25 1016 30 845 24.95 1.8 35.2 86 -0.3 31.5
01:30 1016 30 845 24.95 1.7 35.1 87 -0.2 31.6
01:35 1016 30 845 24.95 1.7 35 87 -0.3 31.5
01:40 1016 30 845 24.95 1.7 35 88 -0.1 31.8
01:45 1016 30 845 24.95 1.6 34.9 88 -0.2 31.7
01:50 1016 30 845 24.95 1.6 35 88 -0.1 31.8
01:55 1016 30 845 24.95 1.6 34.9 88 -0.2 31.7
02:00 1016 30 845 24.95 1.6 34.9 88 -0.1 31.8
02:05 1016 30 845 24.95 1.6 34.9 88 -0.2 31.7
02:10 1016 30 845 24.95 1.7 35 87 -0.2 31.6
02:15 1016 30 845 24.95 1.7 35.1 86 -0.3 31.4
02:20 1016 30 845 24.95 1.7 35.1 87 -0.3 31.5
02:25 1016 30 845 24.95 1.8 35.2 86 -0.3 31.4
02:30 1016 30 845 24.95 1.8 35.2 86 -0.3 31.5
02:35 1016 30 845 24.95 1.8 35.2 86 -0.3 31.5
02:40 1016 30 845 24.95 1.8 35.2 87 -0.2 31.6
02:45 1016 30 845 24.95 1.8 35.2 86 -0.3 31.5
02:50 1016 30 845 24.95 1.7 35.1 87 -0.3 31.5
02:55 1016 30 845 24.95 1.8 35.2 87 -0.2 31.6
03:00 1016 30 845 24.95 1.8 35.2 86 -0.2 31.6
03:05 1016 30 845 24.95 1.8 35.2 86 -0.3 31.5
03:10 1016 30 845 24.95 1.8 35.2 87 -0.2 31.6
03:15 1016 30 845 24.95 1.9 35.3 86 -0.2 31.7
03:20 1016 30 845 24.95 1.9 35.4 86 -0.2 31.7
03:25 1016 30 845 24.95 1.8 35.3 87 -0.1 31.8
03:30 1016 30 845 24.95 1.9 35.4 85 -0.4 31.2
03:35 1016 30 845 24.95 1.9 35.4 85 -0.3 31.4
03:40 1016 30 845 24.95 1.9 35.4 86 -0.2 31.6
03:45 1016 30 845 24.95 1.8 35.3 86 -0.2 31.6
03:50 1016 30 845 24.95 1.8 35.3 86 -0.2 31.6
03:55 1016 30 845 24.95 1.8 35.2 87 -0.2 31.7
04:00 1016 30 845 24.95 1.8 35.3 87 -0.1 31.7
04:05 1016 30 845 24.95 1.8 35.3 86 -0.2 31.7
04:10 1016 30 845 24.95 1.9 35.3 87 -0.1 31.7
04:15 1016 30 845 24.95 1.8 35.3 87 -0.2 31.7
04:20 1016 30 845 24.95 1.9 35.3 87 -0.1 31.8
04:25 1016 30 845 24.95 1.8 35.3 87 -0.1 31.8
04:30 1016 30 845 24.95 1.9 35.3 87 -0.1 31.9
04:35 1016 30 845 24.95 1.8 35.3 87 -0.1 31.9
04:40 1016 30 845 24.95 1.9 35.3 87 -0 32
04:45 1016 30 845 24.95 1.9 35.5 87 0 32.1
04:50 1016 30 845 24.95 2 35.5 87 -0 32
04:55 1016 30 845 24.95 1.9 35.5 87 -0 32
05:00 1016 30 845 24.95 1.9 35.4 87 -0.1 31.9
05:05 1016 30 845 24.95 1.8 35.3 87 -0.1 31.8
05:10 1016 30 845 24.95 1.9 35.4 87 -0.1 31.8
05:15 1016 30 845 24.95 1.9 35.4 86 -0.1 31.7
05:20 1016 30 845 24.95 1.9 35.4 87 -0.1 31.9
05:25 1016 30 845 24.95 2 35.5 87 -0 31.9
05:30 1016 30 845 24.95 2 35.6 86 -0.1 31.8
05:35 1016 30 845 24.95 1.9 35.5 86 -0.2 31.7
05:40 1016 30 845 24.95 1.9 35.5 85 -0.3 31.5
05:45 1016 30 845 24.95 2 35.5 85 -0.3 31.5
05:50 1016 30 845 24.95 2 35.6 85 -0.3 31.5
05:55 1015 29.97 845 24.95 2 35.5 85 -0.3 31.4
06:00 1015 29.97 845 24.95 2 35.5 84 -0.4 31.3
06:05 1015 29.97 845 24.95 2 35.6 85 -0.3 31.4
06:10 1015 29.97 845 24.95 2 35.7 84 -0.4 31.2
06:15 1015 29.97 845 24.95 2.1 35.7 83 -0.5 31.1
06:20 1015 29.97 845 24.95 2.1 35.7 84 -0.4 31.3
06:25 1015 29.97 845 24.95 2.1 35.7 83 -0.5 31.1
06:30 1015 29.97 845 24.95 2.1 35.8 83 -0.4 31.2
06:35 1015 29.97 845 24.95 2.1 35.7 83 -0.5 31.1
06:40 1015 29.97 844 24.92 2 35.7 84 -0.4 31.3
06:45 1015 29.97 844 24.92 2 35.7 83 -0.6 31
06:50 1015 29.97 845 24.95 2 35.7 82 -0.7 30.7
06:55 1015 29.97 845 24.95 2.1 35.8 82 -0.6 30.8
07:00 1015 29.97 845 24.95 2.2 35.9 82 -0.5 31.1
07:05 1015 29.97 845 24.95 2.2 36 82 -0.6 30.9
07:10 1015 29.97 845 24.95 2.2 36 83 -0.4 31.2
07:15 1015 29.97 845 24.95 2.3 36.1 82 -0.4 31.3
07:20 1015 29.97 845 24.95 2.3 36.2 82 -0.5 31.2
07:25 1015 29.97 845 24.95 2.4 36.3 82 -0.4 31.3
07:30 1015 29.97 845 24.95 2.5 36.5 82 -0.3 31.4
07:35 1015 29.97 845 24.95 2.4 36.3 82 -0.4 31.3
07:40 1015 29.97 845 24.95 2.3 36.1 83 -0.4 31.3
07:45 1015 29.97 845 24.95 2.3 36.2 82 -0.5 31.1
07:50 1015 29.97 845 24.95 2.3 36.2 82 -0.5 31.1
07:55 1015 29.97 845 24.95 2.3 36.1 83 -0.4 31.3
08:00 1015 29.97 845 24.95 2.4 36.4 82 -0.4 31.3
08:05 1015 29.97 845 24.95 2.4 36.3 82 -0.3 31.4
08:10 1015 29.97 845 24.95 2.4 36.3 83 -0.2 31.6
08:15 1015 29.97 845 24.95 2.4 36.3 83 -0.2 31.6
08:20 1015 29.97 845 24.95 2.4 36.4 83 -0.1 31.8
08:25 1015 29.97 845 24.95 2.6 36.7 82 -0.2 31.7
08:30 1016 30 845 24.95 2.5 36.5 82 -0.3 31.5
08:35 1016 30 845 24.95 2.6 36.6 82 -0.2 31.7
08:40 1016 30 845 24.95 2.4 36.4 82 -0.3 31.5
08:45 1016 30 845 24.95 2.6 36.7 81 -0.4 31.3
08:50 1016 30 845 24.95 2.7 36.8 81 -0.2 31.6
08:55 1016 30 845 24.95 2.9 37.2 79 -0.5 31.2
09:00 1016 30 845 24.95 3 37.4 77 -0.6 31
09:05 1016 30 845 24.95 3.1 37.6 76 -0.7 30.7
09:10 1016 30 845 24.95 3.2 37.7 77 -0.4 31.2
09:15 1016 30 845 24.95 3.2 37.8 76 -0.5 31.1
09:20 1016 30 845 24.95 3.3 37.9 76 -0.6 30.9
09:25 1016 30 845 24.95 3.3 37.9 75 -0.7 30.8
09:30 1016 30 845 24.95 3.3 37.9 76 -0.5 31.2
09:35 1016 30 845 24.95 3.3 37.9 77 -0.3 31.4
09:40 1016 30 845 24.95 3.3 38 77 -0.3 31.5
09:45 1016 30 845 24.95 3.3 37.9 78 -0.2 31.6
09:50 1016 30 845 24.95 3.5 38.2 75 -0.6 31
09:55 1016 30 845 24.95 3.4 38 76 -0.6 31
10:00 1016 30 845 24.95 3.4 38.1 74 -0.7 30.7
10:05 1016 30 845 24.95 3.4 38.2 77 -0.3 31.5
10:10 1016 30 845 24.95 3.5 38.4 77 -0.2 31.7
10:15 1016 30 845 24.95 3.6 38.5 75 -0.4 31.3
10:20 1016 30 845 24.95 3.6 38.4 74 -0.6 30.9
10:25 1016 30 845 24.95 3.7 38.7 76 -0.1 31.8
10:30 1016 30 845 24.95 3.9 39.1 73 -0.5 31.1
10:35 1016 30 845 24.95 4 39.1 74 -0.3 31.4
10:40 1016 30 845 24.95 3.8 38.9 77 0.2 32.4
10:45 1016 30 845 24.95 3.6 38.4 79 0.2 32.4
10:50 1016 30 845 24.95 3.5 38.3 80 0.3 32.6
10:55 1016 30 845 24.95 3.6 38.6 77 0 32.1
11:00 1016 30 845 24.95 3.7 38.6 75 -0.4 31.4
11:05 1016 30 845 24.95 3.7 38.7 76 -0.1 31.8
11:10 1016 30 845 24.95 4 39.1 75 -0 31.9
11:15 1016 30 845 24.95 4.2 39.6 75 0.3 32.5
11:20 1016 30 845 24.95 4.3 39.7 74 0.1 32.2
11:25 1016 30 845 24.95 4.4 39.9 75 0.3 32.6
11:30 1016 30 845 24.95 4.7 40.4 72 -0 32
11:35 1016 30 845 24.95 4.7 40.5 70 -0.3 31.4
11:40 1016 30 845 24.95 4.8 40.7 71 -0 32
11:45 1016 30 845 24.95 5 40.9 71 0.2 32.3
11:50 1016 30 845 24.95 5.1 41.1 69 -0 31.9
11:55 1016 30 845 24.95 5.1 41.2 72 0.4 32.8
12:00 1016 30 845 24.95 4.9 40.8 69 -0.4 31.3
12:05 1016 30 845 24.95 4.8 40.6 71 -0.1 31.8
12:10 1016 30 845 24.95 4.8 40.7 68 -0.5 31
12:15 1016 30 845 24.95 4.8 40.6 70 -0.3 31.4
12:20 1016 30 845 24.95 5.1 41.2 67 -0.4 31.3
12:25 1016 30 845 24.95 5.3 41.5 65 -0.7 30.8
12:30 1016 30 845 24.95 5.2 41.4 68 -0.3 31.5
12:35 1016 30 845 24.95 5.3 41.6 66 -0.4 31.2
12:40 1016 30 845 24.95 5.5 42 64 -0.6 30.9
12:45 1016 30 845 24.95 5.6 42.1 65 -0.5 31.1
12:50 1016 30 845 24.95 5.6 42 63 -0.8 30.6
12:55 1016 30 845 24.95 5.6 42.1 63 -0.9 30.3
13:00 1016 30 845 24.95 5.7 42.3 68 0.4 32.6
13:05 1016 30 845 24.95 5.3 41.5 68 -0.1 31.9
13:10 1016 30 845 24.95 4.7 40.5 72 0.1 32.2
13:15 1016 30 845 24.95 4.6 40.3 71 -0.2 31.6
13:20 1015 29.97 845 24.95 5 41 70 0.1 32.1
13:25 1015 29.97 845 24.95 5 40.9 69 -0.3 31.5
13:30 1015 29.97 845 24.95 5.1 41.2 70 0 32.1
13:35 1015 29.97 845 24.95 5.6 42.1 66 -0.2 31.7
13:40 1015 29.97 845 24.95 5.3 41.6 66 -0.4 31.2
13:45 1015 29.97 845 24.95 5.9 42.6 64 -0.4 31.3
13:50 1015 29.97 845 24.95 6.3 43.3 61 -0.7 30.8
13:55 1015 29.97 845 24.95 6.1 43 63 -0.3 31.5
14:00 1015 29.97 845 24.95 6.4 43.5 63 -0.2 31.7
14:05 1015 29.97 845 24.95 6.2 43.2 62 -0.4 31.3
14:10 1015 29.97 845 24.95 6.5 43.6 62 -0.4 31.3
14:15 1015 29.97 844 24.92 6.3 43.3 61 -0.6 30.9
14:20 1015 29.97 844 24.92 6.6 43.9 62 -0.2 31.6
14:25 1015 29.97 844 24.92 6.8 44.2 59 -0.6 30.9
14:30 1015 29.97 844 24.92 7.7 45.9 55 -0.7 30.7
14:35 1015 29.97 844 24.92 8 46.3 55 -0.4 31.3
14:40 1015 29.97 844 24.92 7.9 46.2 53 -1 30.1
14:45 1015 29.97 844 24.92 7.7 45.9 55 -0.7 30.7
14:50 1015 29.97 844 24.92 7.5 45.5 55 -0.9 30.3
14:55 1015 29.97 844 24.92 7.8 46 51 -1.8 28.8
15:00 1015 29.97 844 24.92 8.1 46.6 50 -1.6 29.1
15:05 1015 29.97 844 24.92 7.9 46.1 55 -0.5 31
15:10 1015 29.97 844 24.92 7.3 45.1 61 0.3 32.5
15:15 1015 29.97 844 24.92 6.7 44.1 63 0.1 32.2
15:20 1015 29.97 844 24.92 6.5 43.7 67 0.8 33.4
15:25 1015 29.97 844 24.92 6.1 42.9 66 0.3 32.5
15:30 1015 29.97 844 24.92 5.8 42.5 70 0.8 33.5
15:35 1015 29.97 844 24.92 6 42.8 68 0.6 33.2
15:40 1015 29.97 844 24.92 5.9 42.7 68 0.5 33
15:45 1015 29.97 844 24.92 5.9 42.6 69 0.6 33.1
15:50 1015 29.97 844 24.92 5.8 42.5 69 0.6 33
15:55 1015 29.97 844 24.92 5.9 42.7 64 -0.3 31.5
16:00 1015 29.97 844 24.92 5.9 42.6 65 -0.1 31.8
16:05 1015 29.97 844 24.92 6 42.9 66 0.1 32.2
16:10 1015 29.97 844 24.92 6.1 43 63 -0.5 31.2
16:15 1015 29.97 844 24.92 6.3 43.3 63 -0.3 31.5
16:20 1015 29.97 844 24.92 6.3 43.4 63 -0.2 31.6
16:25 1015 29.97 844 24.92 6.3 43.4 64 0 32.1
16:30 1015 29.97 844 24.92 6.2 43.1 62 -0.5 31.2
16:35 1015 29.97 844 24.92 6.2 43.2 63 -0.2 31.6
16:40 1015 29.97 844 24.92 6.2 43.1 64 -0.2 31.7
16:45 1015 29.97 844 24.92 6.1 43 62 -0.6 30.9
16:50 1015 29.97 844 24.92 5.8 42.4 66 -0.1 31.8
16:55 1015 29.97 844 24.92 5.8 42.5 67 0.3 32.5
17:00 1015 29.97 844 24.92 5.9 42.7 67 0.2 32.4
17:05 1015 29.97 844 24.92 5.5 41.9 70 0.5 33
17:10 1015 29.97 844 24.92 5.2 41.4 72 0.5 33
17:15 1015 29.97 844 24.92 5 41.1 71 0.2 32.4
17:20 1015 29.97 844 24.92 4.9 40.8 73 0.5 32.9
17:25 1015 29.97 844 24.92 4.8 40.7 74 0.5 32.9
17:30 1015 29.97 844 24.92 4.9 40.7 75 0.8 33.5
17:35 1015 29.97 844 24.92 4.7 40.5 77 1 33.8
17:40 1015 29.97 844 24.92 4.5 40 76 0.7 33.2
17:45 1015 29.97 844 24.92 4.3 39.7 79 0.9 33.6
17:50 1015 29.97 844 24.92 4.1 39.4 79 0.9 33.5
17:55 1015 29.97 844 24.92 4 39.2 81 1 33.7
18:00 1015 29.97 844 24.92 4 39.1 81 1.1 33.9
18:05 1015 29.97 844 24.92 3.8 38.9 82 1 33.9
18:10 1015 29.97 844 24.92 3.7 38.6 84 1.2 34.2
18:15 1015 29.97 844 24.92 3.5 38.2 84 0.9 33.7
18:20 1015 29.97 844 24.92 2.7 36.9 85 0.4 32.8
18:25 1015 29.97 844 24.92 2.2 36 87 0.2 32.4
18:30 1015 29.97 844 24.92 2 35.5 89 0.3 32.5
18:35 1015 29.97 844 24.92 1.9 35.5 89 0.3 32.6
18:40 1015 29.97 844 24.92 1.8 35.2 89 0.2 32.3
18:45 1015 29.97 844 24.92 1.8 35.2 89 0.2 32.4
18:50 1015 29.97 844 24.92 1.8 35.3 87 -0.1 31.9
18:55 1015 29.97 844 24.92 1.9 35.4 87 -0.1 31.9
19:00 1015 29.97 844 24.92 1.9 35.5 86 -0.1 31.8
19:05 1015 29.97 844 24.92 1.9 35.5 85 -0.2 31.6
19:10 1015 29.97 844 24.92 1.9 35.4 88 0 32
19:15 1015 29.97 844 24.92 1.8 35.3 88 -0 31.9
19:20 1015 29.97 844 24.92 1.8 35.2 87 -0.1 31.8
19:25 1015 29.97 845 24.95 1.8 35.2 87 -0.1 31.8
19:30 1015 29.97 845 24.95 1.7 35 87 -0.2 31.6
19:35 1015 29.97 845 24.95 1.7 35 87 -0.2 31.6
19:40 1015 29.97 845 24.95 1.7 35 86 -0.4 31.3
19:45 1015 29.97 845 24.95 1.7 35.1 86 -0.4 31.2
19:50 1015 29.97 845 24.95 1.7 35.1 85 -0.6 31
19:55 1016 30 845 24.95 1.7 35.1 84 -0.6 30.8
20:00 1016 30 845 24.95 1.7 35.1 84 -0.8 30.6
20:05 1016 30 845 24.95 1.6 35 85 -0.7 30.8
20:10 1016 30 845 24.95 1.5 34.7 83 -1 30.1
20:15 1016 30 845 24.95 1.5 34.7 85 -0.8 30.6
20:20 1016 30 845 24.95 1.5 34.6 83 -1.1 30.1
20:25 1016 30 845 24.95 1.4 34.5 85 -0.9 30.4
20:30 1016 30 845 24.95 1.4 34.4 83 -1.3 29.7
20:35 1016 30 845 24.95 1.3 34.4 82 -1.5 29.3
20:40 1016 30 845 24.95 1.3 34.3 80 -1.8 28.7
20:45 1016 30 845 24.95 1.3 34.4 80 -1.8 28.7
20:50 1016 30 845 24.95 1.3 34.3 80 -1.8 28.8
20:55 1016 30 845 24.95 1.2 34.2 80 -1.8 28.8
21:00 1016 30 845 24.95 1.2 34.1 80 -2 28.5
21:05 1016 30 845 24.95 1.1 34 81 -1.8 28.8
21:10 1016 30 845 24.95 1.1 34 81 -1.8 28.7
21:15 1016 30 845 24.95 1.1 34 81 -1.9 28.6
21:20 1016 30 845 24.95 1.1 33.9 81 -1.8 28.8
21:25 1016 30 845 24.95 1.1 34 81 -1.8 28.7
21:30 1016 30 845 24.95 1 33.9 81 -1.8 28.7
21:35 1016 30 845 24.95 1 33.8 82 -1.8 28.8
21:40 1016 30 845 24.95 0.9 33.7 82 -1.8 28.8
21:45 1016 30 845 24.95 0.9 33.6 82 -1.9 28.7
21:50 1016 30 845 24.95 0.9 33.5 83 -1.7 28.9
21:55 1016 30 845 24.95 0.8 33.5 83 -1.8 28.7
22:00 1016 30 845 24.95 0.8 33.4 82 -1.9 28.7
22:05 1016 30 845 24.95 0.8 33.5 83 -1.8 28.8
22:10 1016 30 845 24.95 0.8 33.5 83 -1.8 28.8
22:15 1016 30 845 24.95 0.9 33.5 82 -1.9 28.5
22:20 1016 30 845 24.95 0.9 33.7 81 -2 28.4
22:25 1016 30 845 24.95 1 33.8 80 -2 28.3
22:30 1016 30 845 24.95 1 33.8 81 -1.9 28.5
22:35 1016 30 845 24.95 1 33.8 81 -1.9 28.6
22:40 1016 30 845 24.95 1 33.8 81 -1.9 28.5
22:45 1016 30 845 24.95 0.9 33.6 82 -1.9 28.6
22:50 1016 30 845 24.95 0.8 33.5 81 -2.1 28.3
22:55 1016 30 845 24.95 0.8 33.4 82 -2.1 28.3
23:00 1016 30 845 24.95 0.6 33.2 82 -2.2 28.1
23:05 1016 30 845 24.95 0.6 33 82 -2.2 28
23:10 1016 30 845 24.95 0.5 32.9 81 -2.3 27.8
23:15 1016 30 845 24.95 0.5 32.8 82 -2.3 27.8
23:20 1016 30 845 24.95 0.4 32.6 81 -2.6 27.4
23:25 1016 30 845 24.95 0.3 32.5 81 -2.6 27.3
23:30 1016 30 846 24.98 0.3 32.5 81 -2.6 27.3
23:35 1016 30 845 24.95 0.3 32.5 80 -2.8 27
23:40 1016 30 845 24.95 0.2 32.4 81 -2.7 27.2
23:45 1016 30 845 24.95 0.2 32.4 81 -2.7 27.2
23:50 1016 30 845 24.95 0.2 32.4 81 -2.7 27.2
23:55 1016 30 845 24.95 0.2 32.4 80 -2.8 26.9
24:00 1016 30 845 24.95 0.3 32.5 80 -2.8 26.9